Time;durP1;ratioP1;P1;durP2;ratioP2;P2;SDS_P1;SDS_P2;PMS_P1;PMS_P2;Temp;Humidity;BMP_temperature;BMP_pressure;BME280_temperature;BME280_humidity;BME280_pressure;Samples;Min_cycle;Max_cycle;Signal;HPM_P1;HPM_P2
2022/09/01 00:01:29;;;;;;;3.13;0.70;;;;;;;16.09;71.00;102201.56;20839489;28;20069;-59
2022/09/01 00:11:54;;;;;;;1.05;0.77;;;;;;;15.98;71.50;102200.59;20846927;28;20044;-62
2022/09/01 00:22:15;;;;;;;0.55;0.55;;;;;;;16.07;71.14;102194.72;20832862;28;20045;-59
2022/09/01 00:32:37;;;;;;;0.77;0.68;;;;;;;15.80;71.93;102196.50;20841742;28;20045;-62
2022/09/01 00:42:59;;;;;;;0.60;0.60;;;;;;;15.85;72.37;102200.53;20824973;28;20042;-60
2022/09/01 00:53:21;;;;;;;4.85;0.68;;;;;;;15.88;72.48;102202.09;20835387;28;20045;-59
2022/09/01 01:03:43;;;;;;;1.42;0.60;;;;;;;15.76;72.76;102190.63;20829222;28;20049;-59
2022/09/01 01:14:15;;;;;;;3.08;0.68;;;;;;;15.55;73.11;102201.66;20831505;28;20048;-60
2022/09/01 01:24:37;;;;;;;0.82;0.60;;;;;;;15.73;72.39;102190.81;20838468;28;20037;-60
2022/09/01 01:35:02;;;;;;;1.70;1.00;;;;;;;15.77;72.41;102188.81;20833584;28;20056;-59
2022/09/01 01:45:24;;;;;;;0.70;0.70;;;;;;;15.84;72.05;102195.38;20828188;28;20041;-60
2022/09/01 01:55:48;;;;;;;2.20;0.75;;;;;;;15.88;72.07;102200.34;20829600;28;20038;-60
2022/09/01 02:06:10;;;;;;;1.02;0.77;;;;;;;15.84;73.35;102196.22;20829958;28;20112;-59
2022/09/01 02:16:33;;;;;;;1.33;0.90;;;;;;;15.66;73.69;102204.44;20823234;28;20071;-59
2022/09/01 02:26:59;;;;;;;1.80;0.70;;;;;;;15.79;73.93;102205.34;20830987;28;20049;-61
2022/09/01 02:37:24;;;;;;;0.80;0.80;;;;;;;15.40;76.31;102200.00;20836696;28;20052;-60
2022/09/01 02:47:47;;;;;;;1.45;0.80;;;;;;;15.42;75.86;102192.84;20834431;28;20183;-60
2022/09/01 02:58:15;;;;;;;1.23;0.85;;;;;;;15.35;76.83;102183.66;20810127;28;20449;-60
2022/09/01 03:08:38;;;;;;;1.65;1.00;;;;;;;15.42;77.34;102179.72;20811324;28;20577;-60
2022/09/01 03:19:06;;;;;;;2.10;1.00;;;;;;;15.24;78.48;102179.97;20838016;28;20373;-61
2022/09/01 03:29:27;;;;;;;2.50;1.10;;;;;;;15.47;77.36;102175.00;20837302;28;20371;-62
2022/09/01 03:39:49;;;;;;;1.00;0.90;;;;;;;15.39;77.84;102174.66;20832196;28;20067;-61
2022/09/01 03:50:20;;;;;;;0.95;0.95;;;;;;;15.39;78.22;102158.88;20840382;28;20040;-62
2022/09/01 04:00:45;;;;;;;2.38;1.35;;;;;;;15.33;78.83;102164.50;20830491;28;20383;-64
2022/09/01 04:11:17;;;;;;;3.70;1.00;;;;;;;15.31;79.00;102155.88;20838377;28;20045;-62
2022/09/01 04:21:39;;;;;;;0.90;0.90;;;;;;;15.41;78.57;102162.25;20833250;28;20041;-62
2022/09/01 04:32:09;;;;;;;;;;;;;;;15.31;79.77;102165.56;20834190;28;20038;-62
2022/09/01 04:42:31;;;;;;;1.70;1.00;;;;;;;15.44;79.40;102162.03;20824329;28;19924;-61
2022/09/01 04:52:55;;;;;;;1.67;1.20;;;;;;;15.44;79.46;102164.66;20843461;28;20136;-62
2022/09/01 05:03:20;;;;;;;0.93;0.88;;;;;;;15.50;79.83;102166.91;20846497;28;20506;-62
2022/09/01 05:13:44;;;;;;;1.08;0.90;;;;;;;15.30;80.43;102175.19;20827291;28;20095;-62
2022/09/01 05:24:07;;;;;;;1.17;0.90;;;;;;;15.42;80.39;102168.34;20816279;28;20069;-62
2022/09/01 05:34:31;;;;;;;1.90;1.20;;;;;;;15.52;80.68;102168.50;20824250;28;20054;-63
2022/09/01 05:44:53;;;;;;;1.73;1.30;;;;;;;15.68;80.40;102176.28;20833383;28;20058;-62
2022/09/01 05:55:15;;;;;;;2.30;1.13;;;;;;;15.59;80.66;102171.56;20828591;28;20068;-63
2022/09/01 06:05:38;;;;;;;1.63;1.05;;;;;;;15.68;80.70;102182.34;20833884;28;20490;-62
2022/09/01 06:16:01;;;;;;;3.85;1.10;;;;;;;15.75;80.67;102185.44;20831741;28;20393;-62
2022/09/01 06:26:27;;;;;;;2.03;1.10;;;;;;;15.82;79.54;102176.22;20827440;28;20148;-63
2022/09/01 06:36:50;;;;;;;1.23;1.02;;;;;;;15.97;80.44;102188.38;20831775;28;20043;-63
2022/09/01 06:47:14;;;;;;;1.88;1.10;;;;;;;16.27;80.38;102195.09;20828732;28;20465;-62
2022/09/01 06:57:43;;;;;;;3.63;1.33;;;;;;;16.42;80.25;102203.81;20842647;28;20050;-62
2022/09/01 07:08:25;;;;;;;1.80;1.20;;;;;;;16.65;80.51;102210.03;20828747;28;20417;-62
2022/09/01 07:18:48;;;;;;;3.35;1.05;;;;;;;16.85;79.44;102214.81;20822358;28;20046;-63
2022/09/01 07:29:21;;;;;;;1.60;1.30;;;;;;;16.98;79.63;102215.66;20836797;28;20505;-63
2022/09/01 07:39:48;;;;;;;2.90;1.63;;;;;;;17.21;78.81;102220.16;20847222;28;20045;-63
2022/09/01 07:50:14;;;;;;;2.20;1.30;;;;;;;17.35;77.79;102209.50;20838276;28;20049;-62
2022/09/01 08:00:58;;;;;;;2.22;1.05;;;;;;;17.65;76.59;102210.84;20841633;28;20057;-62
2022/09/01 08:11:24;;;;;;;3.30;1.30;;;;;;;17.68;77.06;102215.03;20838468;28;20502;-62
2022/09/01 08:22:05;;;;;;;2.25;1.35;;;;;;;17.77;75.82;102219.63;20831519;28;20039;-62
2022/09/01 08:32:27;;;;;;;1.85;1.15;;;;;;;18.04;74.07;102222.94;20832688;28;20572;-62
2022/09/01 08:43:19;;;;;;;2.28;0.98;;;;;;;18.40;72.61;102218.44;20825253;28;20041;-62
2022/09/01 08:53:48;;;;;;;5.00;1.10;;;;;;;18.80;70.16;102220.56;20826268;28;20533;-62
2022/09/01 09:04:35;;;;;;;2.70;0.93;;;;;;;18.93;68.16;102226.59;20833230;28;20057;-63
2022/09/01 09:15:14;;;;;;;3.47;0.80;;;;;;;19.59;63.06;102214.25;20823466;28;20498;-62
2022/09/01 09:25:35;;;;;;;2.88;0.75;;;;;;;19.74;61.50;102198.97;20852911;28;20192;-63
2022/09/01 09:36:16;;;;;;;1.10;0.60;;;;;;;19.81;61.06;102194.84;20842210;28;20065;-63
2022/09/01 09:46:44;;;;;;;1.17;0.50;;;;;;;20.37;56.97;102183.13;20828198;28;20505;-63
2022/09/01 09:57:12;;;;;;;4.65;0.60;;;;;;;20.31;56.50;102179.16;20827834;28;20049;-63
2022/09/01 10:07:36;;;;;;;0.55;0.52;;;;;;;20.48;53.75;102176.78;20828610;28;20128;-62
2022/09/01 10:18:05;;;;;;;2.78;0.70;;;;;;;20.62;53.42;102183.56;20846959;28;20041;-62
2022/09/01 10:29:00;;;;;;;0.95;0.50;;;;;;;20.62;53.47;102170.31;20833043;28;20049;-63
2022/09/01 10:39:22;;;;;;;2.10;0.52;;;;;;;20.77;54.06;102161.91;20826188;28;20478;-63
2022/09/01 10:49:51;;;;;;;2.60;0.50;;;;;;;21.18;51.19;102153.88;20831351;28;20052;-63
2022/09/01 11:00:22;;;;;;;1.27;0.43;;;;;;;21.04;49.44;102148.94;20845049;28;20072;-62
2022/09/01 11:11:27;;;;;;;1.65;0.55;;;;;;;21.33;47.41;102139.25;20831030;28;20631;-63
2022/09/01 11:22:10;;;;;;;4.47;0.55;;;;;;;21.52;46.87;102134.81;20836120;28;20056;-63
2022/09/01 11:32:36;;;;;;;0.95;0.50;;;;;;;22.09;45.36;102134.06;20840258;28;20060;-63
2022/09/01 11:43:06;;;;;;;4.47;0.60;;;;;;;22.14;45.60;102126.50;20826216;28;20064;-63
2022/09/01 11:53:33;;;;;;;3.83;0.63;;;;;;;22.28;44.37;102123.41;20832373;28;20053;-61
2022/09/01 12:03:54;;;;;;;2.10;0.40;;;;;;;22.18;47.81;102112.81;20838890;28;20072;-62
2022/09/01 12:14:21;;;;;;;10.70;0.82;;;;;;;22.30;45.58;102110.81;20832340;28;20053;-61
2022/09/01 12:24:47;;;;;;;2.78;0.65;;;;;;;22.29;44.62;102093.19;20837933;28;20056;-61
2022/09/01 12:35:26;;;;;;;3.50;0.50;;;;;;;22.45;44.60;102092.50;20836756;28;20041;-61
2022/09/01 12:45:48;;;;;;;1.40;0.50;;;;;;;22.41;44.33;102096.41;20832742;28;20049;-61
2022/09/01 12:56:34;;;;;;;5.70;0.63;;;;;;;22.79;42.96;102077.69;20835812;28;20053;-61
2022/09/01 13:07:03;;;;;;;1.17;0.75;;;;;;;22.72;44.30;102076.56;20813578;28;20038;-61
2022/09/01 13:17:25;;;;;;;0.85;0.50;;;;;;;22.61;46.05;102074.09;20832840;28;20037;-64
2022/09/01 13:27:47;;;;;;;5.05;0.57;;;;;;;22.39;46.76;102069.16;20829454;28;20041;-62
2022/09/01 13:38:08;;;;;;;4.13;0.43;;;;;;;22.32;43.70;102055.69;20812501;28;20045;-61
2022/09/01 13:48:32;;;;;;;2.05;0.40;;;;;;;22.28;43.86;102038.34;20823361;28;20433;-61
2022/09/01 13:59:14;;;;;;;1.10;0.57;;;;;;;22.33;41.79;102025.53;20823189;28;20786;-60
2022/09/01 14:09:36;;;;;;;1.27;0.50;;;;;;;22.69;46.50;102023.72;20826839;28;20059;-60
2022/09/01 14:19:57;;;;;;;3.35;0.50;;;;;;;22.43;43.36;102006.72;20831243;28;20047;-60
2022/09/01 14:30:22;;;;;;;0.77;0.70;;;;;;;22.48;44.91;102001.00;20817764;28;20536;-60
2022/09/01 14:40:50;;;;;;;0.93;0.40;;;;;;;22.46;40.75;101995.81;20819731;28;20668;-59
2022/09/01 14:51:27;;;;;;;1.55;0.32;;;;;;;22.38;40.86;101992.22;20828923;28;20048;-60
2022/09/01 15:02:09;;;;;;;1.98;0.43;;;;;;;22.87;40.96;101981.19;20803792;28;20053;-60
2022/09/01 15:12:30;;;;;;;0.30;0.30;;;;;;;22.50;41.34;101980.41;20822923;28;20045;-60
2022/09/01 15:22:52;;;;;;;1.35;0.50;;;;;;;22.41;41.46;101966.16;20829905;28;20048;-60
2022/09/01 15:33:14;;;;;;;0.50;0.50;;;;;;;22.85;43.58;101960.03;20818121;28;20045;-60
2022/09/01 15:43:36;;;;;;;1.05;0.55;;;;;;;22.69;41.80;101948.41;20841804;28;20041;-60
2022/09/01 15:54:05;;;;;;;2.35;0.68;;;;;;;22.88;40.72;101938.47;20820824;28;20049;-60
2022/09/01 16:04:26;;;;;;;2.92;0.63;;;;;;;22.65;42.52;101937.22;20838613;28;20081;-60
2022/09/01 16:14:49;;;;;;;1.02;0.40;;;;;;;23.09;41.29;101933.72;20834067;28;20041;-60
2022/09/01 16:25:28;;;;;;;1.00;0.50;;;;;;;23.55;41.94;101922.81;20815532;28;20053;-60
2022/09/01 16:36:31;;;;;;;1.00;0.40;;;;;;;22.84;40.91;101915.84;20838701;28;20059;-60
2022/09/01 16:47:03;;;;;;;2.53;0.50;;;;;;;23.06;40.94;101910.09;20800231;28;20054;-61
2022/09/01 16:57:59;;;;;;;1.60;0.45;;;;;;;22.41;41.27;101918.31;20808796;28;20127;-60
2022/09/01 17:08:25;;;;;;;3.10;0.55;;;;;;;22.50;40.83;101912.13;20822783;28;20045;-61
2022/09/01 17:18:54;;;;;;;1.60;0.38;;;;;;;22.24;42.25;101914.75;20807683;28;20037;-61
2022/09/01 17:29:24;;;;;;;1.77;0.50;;;;;;;22.13;44.17;101910.47;20809520;28;20055;-60
2022/09/01 17:40:06;;;;;;;2.13;0.60;;;;;;;21.93;43.24;101908.84;20812592;28;20525;-60
2022/09/01 17:50:52;;;;;;;3.08;0.60;;;;;;;21.68;43.63;101919.31;20801365;28;20056;-59
2022/09/01 18:01:38;;;;;;;0.95;0.50;;;;;;;21.42;45.09;101918.16;20795514;28;20620;-60
2022/09/01 18:12:13;;;;;;;1.15;0.82;;;;;;;21.13;46.50;101919.19;20797559;28;20727;-60
2022/09/01 18:22:41;;;;;;;1.15;0.40;;;;;;;20.83;46.81;101927.25;20821014;28;20060;-60
2022/09/01 18:33:37;;;;;;;3.80;0.57;;;;;;;20.59;47.32;101929.41;20811790;28;20057;-59
2022/09/01 18:44:29;;;;;;;1.25;0.95;;;;;;;20.43;47.30;101929.91;20791614;28;20052;-60
2022/09/01 18:55:11;;;;;;;2.90;0.77;;;;;;;20.23;47.09;101940.59;20788954;28;20629;-60
2022/09/01 19:05:37;;;;;;;3.30;1.00;;;;;;;19.92;48.72;101946.00;20800229;28;20690;-61
2022/09/01 19:16:12;;;;;;;1.67;0.65;;;;;;;19.84;50.68;101940.50;20815395;28;20046;-61
2022/09/01 19:26:42;;;;;;;1.77;0.63;;;;;;;19.80;51.28;101947.00;20825767;28;20049;-60
2022/09/01 19:37:05;;;;;;;0.75;0.52;;;;;;;19.54;51.92;101957.16;20825206;28;20049;-60
2022/09/01 19:47:36;;;;;;;5.68;0.57;;;;;;;19.43;52.76;101953.72;20831069;28;20048;-62
2022/09/01 19:58:12;;;;;;;1.50;0.60;;;;;;;19.25;54.01;101962.34;20824905;28;20046;-60
2022/09/01 20:08:45;;;;;;;0.73;0.65;;;;;;;18.94;55.10;101957.88;20819416;28;20053;-60
2022/09/01 20:19:17;;;;;;;2.03;0.70;;;;;;;18.74;55.98;101954.19;20831294;28;20041;-60
2022/09/01 20:29:48;;;;;;;1.17;0.60;;;;;;;18.71;56.86;101974.72;20826082;28;20045;-60
2022/09/01 20:40:26;;;;;;;11.40;0.95;;;;;;;18.57;57.87;101967.03;20824609;28;20122;-59
2022/09/01 20:50:55;;;;;;;5.43;0.80;;;;;;;18.44;58.49;101975.13;20835496;28;20076;-60
2022/09/01 21:01:32;;;;;;;2.28;0.80;;;;;;;18.33;59.30;101978.72;20848341;28;20048;-60
2022/09/01 21:12:04;;;;;;;0.75;0.68;;;;;;;18.11;60.86;101981.31;20823498;28;20037;-59
2022/09/01 21:22:26;;;;;;;1.25;0.70;;;;;;;17.96;61.22;101974.56;20826847;28;20033;-61
2022/09/01 21:32:52;;;;;;;1.35;0.63;;;;;;;18.04;61.79;101972.22;20829513;28;20063;-60
2022/09/01 21:43:31;;;;;;;0.98;0.70;;;;;;;17.74;63.09;101967.47;20836743;28;20429;-59
2022/09/01 21:53:53;;;;;;;0.73;0.60;;;;;;;17.58;63.30;101971.38;20828010;28;20569;-60
2022/09/01 22:04:17;;;;;;;0.40;0.40;;;;;;;17.48;62.92;101980.91;20834424;28;20469;-60
2022/09/01 22:14:38;;;;;;;2.58;0.52;;;;;;;17.28;63.80;101976.28;20821748;28;20048;-59
2022/09/01 22:25:12;;;;;;;2.50;0.57;;;;;;;17.24;64.39;101976.63;20825550;28;20461;-60
2022/09/01 22:35:39;;;;;;;0.55;0.50;;;;;;;17.08;64.40;101974.25;20827271;28;20056;-59
2022/09/01 22:46:04;;;;;;;0.70;0.60;;;;;;;17.03;64.91;101973.75;20827954;28;20049;-60
2022/09/01 22:56:31;;;;;;;3.65;0.70;;;;;;;16.74;65.62;101971.53;20838492;28;20072;-59
2022/09/01 23:06:53;;;;;;;1.00;0.57;;;;;;;16.63;66.17;101966.22;20809961;28;20045;-60
2022/09/01 23:17:14;;;;;;;0.55;0.50;;;;;;;16.57;67.01;101959.59;20819900;28;20061;-60
2022/09/01 23:27:36;;;;;;;0.50;0.50;;;;;;;16.43;66.56;101957.09;20821111;28;20070;-60
2022/09/01 23:37:58;;;;;;;0.60;0.50;;;;;;;16.41;67.19;101944.16;20832432;28;20053;-60
2022/09/01 23:48:20;;;;;;;2.80;0.60;;;;;;;16.08;67.65;101934.16;20824096;28;20406;-60
2022/09/01 23:58:43;;;;;;;0.60;0.60;;;;;;;16.03;68.41;101924.91;20831600;28;20045;-59
